createdAt,value
2024-01-10T00:00:21.942Z,17.7
2024-01-10T00:20:23.812Z,17.6
2024-01-10T00:40:21.657Z,17.6
2024-01-10T01:00:22.821Z,17.5
2024-01-10T01:20:23.328Z,17.4
2024-01-10T01:40:22.304Z,17.3
2024-01-10T02:00:21.798Z,17.2
2024-01-10T02:20:23.003Z,17.1
2024-01-10T02:40:22.706Z,17.1
2024-01-10T03:00:21.681Z,17
2024-01-10T03:20:21.298Z,17
2024-01-10T03:40:23.953Z,16.9
2024-01-10T04:00:21.636Z,16.9
2024-01-10T04:20:22.735Z,16.8
2024-01-10T04:40:22.109Z,16.8
2024-01-10T05:00:22.553Z,16.7
2024-01-10T05:20:22.293Z,16.7
2024-01-10T05:40:21.127Z,16.6
2024-01-10T06:00:22.438Z,16.7
2024-01-10T06:20:22.206Z,16.6
2024-01-10T06:40:21.396Z,16.6
2024-01-10T07:00:22.160Z,16.5
2024-01-10T07:20:37.993Z,16.4
2024-01-10T07:40:38.422Z,16.3
2024-01-10T08:00:38.654Z,16.2
2024-01-10T08:20:38.803Z,16.2
2024-01-10T08:40:43.909Z,16.2
2024-01-10T09:00:34.372Z,16.2
2024-01-10T09:20:38.783Z,16.2
2024-01-10T09:40:38.090Z,16.2
2024-01-10T10:00:43.379Z,16.2
2024-01-10T10:20:38.715Z,16.2
2024-01-10T10:40:37.428Z,16.3
2024-01-10T11:00:38.984Z,16.3
2024-01-10T11:20:39.011Z,16.3
2024-01-10T11:40:38.691Z,16.3
2024-01-10T12:00:36.480Z,16.4
2024-01-10T12:20:40.550Z,16.4
2024-01-10T12:40:37.638Z,16.4
2024-01-10T13:00:34.722Z,16.5
2024-01-10T13:20:38.595Z,16.5
2024-01-10T13:40:38.104Z,16.5
2024-01-10T14:00:39.348Z,16.5
2024-01-10T14:20:40.307Z,16.5
2024-01-10T14:40:39.159Z,16.5
2024-01-10T15:00:35.535Z,16.5
2024-01-10T15:20:38.419Z,16.5
2024-01-10T15:40:22.520Z,16.5
2024-01-10T16:00:38.641Z,16.4
2024-01-10T16:20:22.345Z,16.4
2024-01-10T16:40:21.132Z,16.4
2024-01-10T17:00:22.075Z,16.4
2024-01-10T17:20:21.741Z,16.3
2024-01-10T17:40:23.173Z,16.3
2024-01-10T18:00:21.269Z,16.3
2024-01-10T18:20:21.858Z,16.5
2024-01-10T18:40:21.549Z,16.6
2024-01-10T19:00:24.480Z,16.9
2024-01-10T19:20:22.669Z,17
2024-01-10T19:40:22.535Z,17.1
2024-01-10T20:00:25.605Z,17.1
2024-01-10T20:20:22.753Z,17.2
2024-01-10T20:40:22.875Z,17.2
2024-01-10T21:00:29.016Z,17.2
2024-01-10T21:20:22.052Z,17.3
2024-01-10T21:40:21.823Z,17.4
2024-01-10T22:00:23.674Z,17.4
2024-01-10T22:20:21.617Z,17.3
2024-01-10T22:40:22.289Z,17.2
2024-01-10T23:00:33.430Z,17.1
2024-01-10T23:20:22.803Z,17.1
2024-01-10T23:40:22.383Z,17
